Brunswick, ME

4:17 AM EDT on July 24, 2017 (GMT -0400)
Jordan Acres | | Change Station
Active Advisory: Coastal Flood Advisory Active Notice: Coastal Flood Advisory

Elev 39 ft 43.92 °N, 69.95 °W | Updated 3 minutes ago

Mostly Cloudy
Mostly Cloudy
59.5 °F
Feels Like 59.5 °F
N
0.0
Wind Variable Wind from SSE
Gusts 0.0 mph

Today
High -- | Low -- °F
--% Chance of Precip.
Yesterday
High -- | Low -- °F
Precip. -- in
Pressure 29.99 in
Visibility 10.0 miles
Clouds Clear
Dew Point 56 °F
Humidity 88%
Rainfall 0.00 in
Snow Depth Not available.
5:20 AM 8:12 PM
New Moon, 1% visible
METAR KIWI 240753Z AUTO 00000KT 10SM CLR 13/12 A2999 RMK AO2 SLP155 T01330117
Pressure 29.99 in
Visibility 10.0 miles
Clouds Clear
Dew Point 56 °F
Humidity 88%
Rainfall 0.00 in
Snow Depth Not available.
5:20 AM 8:12 PM
New Moon, 1% visible
METAR KIWI 240753Z AUTO 00000KT 10SM CLR 13/12 A2999 RMK AO2 SLP155 T01330117

Get Your Daily Forecast Email!

Thanks for signing up!

Be on the lookout for a verification email in your inbox.

You'll start receiving severe weather alerts in your inbox..

×

10-Day Weather Forecast

Almanac

Astronomy

Jul. 24, 2017 Rise Set
Actual Time
Civil Twilight
Nautical Twilight
Astronomical Twilight
Moon
Length of Visible Light
Length of Day
Tomorrow will be .
, % of the Moon is Illuminated

Today's Extremes

State Highs State Lows

Community

WunderPhotos

Category 6

Welcome to Category 6. This is the collective home for Weather Underground's featured writeups by Dr. Jeff Masters (right), Bob Henson (left), Chris Burt, and other regular contributors.

Nearby

Air Quality

  Air Quality AQ Index Pollutant
Not available.

Snow Depth

Station Depth Elevation

Earthquake Activity

City Distance Mag. Time & Date
Minimum magnitude displayed is 2.5.

Coastal Water Temperatures

Place Temperature

Stations

Nearby Weather Stations

Station Location Temp. Windchill Dew Point Humidity Wind Precip. Elev Updated Type
                   

Watches & Warnings

Coastal Flood Advisory
Issued: 3:29 AM EDT Jul. 24, 2017 – National Weather Service

... Coastal flood advisory in effect from midnight tonight to 3 am
EDT Tuesday...

The National Weather Service in gray has issued a coastal flood
advisory... which is in effect from midnight tonight to 3 am EDT
Tuesday.

* Location... coastal New Hampshire and the southwest coast of
Maine

* coastal flooding... minor flooding of wharfs and shore roads.

* Timing... around the time of high tide... which is at 1246am at
Portland.

Precautionary/preparedness actions...

A coastal flood advisory indicates that onshore winds and tides
will combine to generate flooding of low areas along the shore.